sensor_id;sensor_type;location;lat;lon;timestamp;pressure;altitude;pressure_sealevel;temperature;humidity
55301;BME280;58302;51.446;-2.000;2023-02-10T00:00:51;102853.41;;;-3.63;100.00
55301;BME280;58302;51.446;-2.000;2023-02-10T00:03:17;102847.94;;;-3.73;100.00
55301;BME280;58302;51.446;-2.000;2023-02-10T00:05:43;102853.06;;;-3.83;100.00
55301;BME280;58302;51.446;-2.000;2023-02-10T00:08:09;102860.06;;;-3.82;100.00
55301;BME280;58302;51.446;-2.000;2023-02-10T00:10:36;102850.00;;;-3.89;100.00
55301;BME280;58302;51.446;-2.000;2023-02-10T00:13:02;102850.22;;;-3.92;100.00
55301;BME280;58302;51.446;-2.000;2023-02-10T00:15:28;102847.56;;;-3.92;100.00
55301;BME280;58302;51.446;-2.000;2023-02-10T00:17:54;102849.59;;;-3.96;100.00
55301;BME280;58302;51.446;-2.000;2023-02-10T00:20:20;102848.47;;;-4.05;100.00
55301;BME280;58302;51.446;-2.000;2023-02-10T00:22:46;102852.16;;;-4.07;100.00
55301;BME280;58302;51.446;-2.000;2023-02-10T00:25:11;102848.47;;;-4.05;100.00
55301;BME280;58302;51.446;-2.000;2023-02-10T00:27:37;102847.81;;;-4.08;100.00
55301;BME280;58302;51.446;-2.000;2023-02-10T00:30:03;102857.91;;;-4.13;100.00
55301;BME280;58302;51.446;-2.000;2023-02-10T00:32:29;102862.91;;;-4.09;100.00
55301;BME280;58302;51.446;-2.000;2023-02-10T00:34:55;102856.75;;;-4.09;100.00
55301;BME280;58302;51.446;-2.000;2023-02-10T00:37:21;102853.25;;;-4.10;100.00
55301;BME280;58302;51.446;-2.000;2023-02-10T00:39:47;102853.97;;;-4.08;100.00
55301;BME280;58302;51.446;-2.000;2023-02-10T00:42:13;102866.28;;;-4.07;100.00
55301;BME280;58302;51.446;-2.000;2023-02-10T00:44:39;102859.13;;;-4.17;100.00
55301;BME280;58302;51.446;-2.000;2023-02-10T00:47:05;102870.25;;;-4.25;100.00
55301;BME280;58302;51.446;-2.000;2023-02-10T00:49:31;102862.63;;;-4.30;100.00
55301;BME280;58302;51.446;-2.000;2023-02-10T00:51:57;102871.66;;;-4.32;100.00
55301;BME280;58302;51.446;-2.000;2023-02-10T00:54:23;102866.56;;;-4.35;100.00
55301;BME280;58302;51.446;-2.000;2023-02-10T00:56:49;102861.50;;;-4.38;100.00
55301;BME280;58302;51.446;-2.000;2023-02-10T00:59:15;102868.59;;;-4.39;100.00
55301;BME280;58302;51.446;-2.000;2023-02-10T01:01:41;102863.28;;;-4.39;100.00
55301;BME280;58302;51.446;-2.000;2023-02-10T01:04:07;102859.03;;;-4.41;100.00
55301;BME280;58302;51.446;-2.000;2023-02-10T01:06:33;102855.53;;;-4.42;100.00
55301;BME280;58302;51.446;-2.000;2023-02-10T01:08:59;102849.88;;;-4.25;100.00
55301;BME280;58302;51.446;-2.000;2023-02-10T01:11:25;102857.84;;;-4.12;100.00
55301;BME280;58302;51.446;-2.000;2023-02-10T01:13:51;102846.13;;;-4.09;100.00
55301;BME280;58302;51.446;-2.000;2023-02-10T01:16:17;102851.03;;;-4.16;100.00
55301;BME280;58302;51.446;-2.000;2023-02-10T01:18:44;102850.41;;;-4.19;100.00
55301;BME280;58302;51.446;-2.000;2023-02-10T01:21:13;102857.00;;;-4.25;100.00
55301;BME280;58302;51.446;-2.000;2023-02-10T01:23:39;102858.28;;;-4.31;100.00
55301;BME280;58302;51.446;-2.000;2023-02-10T01:26:06;102853.28;;;-4.35;100.00
55301;BME280;58302;51.446;-2.000;2023-02-10T01:28:32;102848.75;;;-4.33;100.00
55301;BME280;58302;51.446;-2.000;2023-02-10T01:31:07;102844.72;;;-4.39;100.00
55301;BME280;58302;51.446;-2.000;2023-02-10T01:33:34;102848.84;;;-4.47;100.00
55301;BME280;58302;51.446;-2.000;2023-02-10T01:36:08;102834.09;;;-4.52;100.00
55301;BME280;58302;51.446;-2.000;2023-02-10T01:38:34;102848.97;;;-4.49;100.00
55301;BME280;58302;51.446;-2.000;2023-02-10T01:41:01;102843.88;;;-4.39;100.00
55301;BME280;58302;51.446;-2.000;2023-02-10T01:43:27;102853.28;;;-4.22;100.00
55301;BME280;58302;51.446;-2.000;2023-02-10T01:45:53;102849.56;;;-4.20;100.00
55301;BME280;58302;51.446;-2.000;2023-02-10T01:48:19;102852.13;;;-4.31;100.00
55301;BME280;58302;51.446;-2.000;2023-02-10T01:50:50;102856.63;;;-4.44;100.00
55301;BME280;58302;51.446;-2.000;2023-02-10T01:53:18;102869.78;;;-4.56;100.00
55301;BME280;58302;51.446;-2.000;2023-02-10T01:55:47;102865.53;;;-4.58;100.00
55301;BME280;58302;51.446;-2.000;2023-02-10T01:58:18;102855.34;;;-4.64;100.00
55301;BME280;58302;51.446;-2.000;2023-02-10T02:00:45;102859.06;;;-4.67;100.00
55301;BME280;58302;51.446;-2.000;2023-02-10T02:03:12;102863.63;;;-4.69;100.00
55301;BME280;58302;51.446;-2.000;2023-02-10T02:05:41;102864.88;;;-4.74;100.00
55301;BME280;58302;51.446;-2.000;2023-02-10T02:08:11;102861.50;;;-4.77;100.00
55301;BME280;58302;51.446;-2.000;2023-02-10T02:11:04;102863.75;;;-4.83;100.00
55301;BME280;58302;51.446;-2.000;2023-02-10T02:16:18;102864.56;;;-4.95;100.00
55301;BME280;58302;51.446;-2.000;2023-02-10T02:18:59;102852.56;;;-5.01;100.00
55301;BME280;58302;51.446;-2.000;2023-02-10T02:27:35;102852.56;;;-5.01;100.00
55301;BME280;58302;51.446;-2.000;2023-02-10T02:32:53;102855.94;;;-5.12;100.00
55301;BME280;58302;51.446;-2.000;2023-02-10T02:35:24;102856.56;;;-5.21;100.00
55301;BME280;58302;51.446;-2.000;2023-02-10T02:37:52;102850.72;;;-5.26;100.00
55301;BME280;58302;51.446;-2.000;2023-02-10T02:40:20;102837.47;;;-5.26;100.00
55301;BME280;58302;51.446;-2.000;2023-02-10T02:42:46;102842.56;;;-5.23;100.00
55301;BME280;58302;51.446;-2.000;2023-02-10T02:45:17;102845.31;;;-5.24;100.00
55301;BME280;58302;51.446;-2.000;2023-02-10T02:48:11;102839.47;;;-5.30;100.00
55301;BME280;58302;51.446;-2.000;2023-02-10T02:58:50;102838.75;;;-5.19;100.00
55301;BME280;58302;51.446;-2.000;2023-02-10T03:01:37;102839.72;;;-5.20;100.00
55301;BME280;58302;51.446;-2.000;2023-02-10T03:04:05;102836.41;;;-5.23;100.00
55301;BME280;58302;51.446;-2.000;2023-02-10T03:06:31;102834.72;;;-5.24;100.00
55301;BME280;58302;51.446;-2.000;2023-02-10T03:08:57;102833.97;;;-5.26;100.00
55301;BME280;58302;51.446;-2.000;2023-02-10T03:11:23;102835.88;;;-5.28;100.00
55301;BME280;58302;51.446;-2.000;2023-02-10T03:13:49;102836.72;;;-5.28;100.00
55301;BME280;58302;51.446;-2.000;2023-02-10T03:16:15;102835.69;;;-5.25;100.00
55301;BME280;58302;51.446;-2.000;2023-02-10T03:18:41;102826.78;;;-5.24;100.00
55301;BME280;58302;51.446;-2.000;2023-02-10T03:21:07;102819.13;;;-5.29;100.00
55301;BME280;58302;51.446;-2.000;2023-02-10T03:23:33;102809.91;;;-5.36;100.00
55301;BME280;58302;51.446;-2.000;2023-02-10T03:26:00;102811.47;;;-5.34;100.00
55301;BME280;58302;51.446;-2.000;2023-02-10T03:28:27;102817.97;;;-5.38;100.00
55301;BME280;58302;51.446;-2.000;2023-02-10T03:30:53;102824.59;;;-5.45;100.00
55301;BME280;58302;51.446;-2.000;2023-02-10T03:33:19;102818.75;;;-5.50;100.00
55301;BME280;58302;51.446;-2.000;2023-02-10T03:35:45;102810.91;;;-5.51;100.00
55301;BME280;58302;51.446;-2.000;2023-02-10T03:38:12;102811.75;;;-5.51;100.00
55301;BME280;58302;51.446;-2.000;2023-02-10T03:40:39;102813.97;;;-5.58;100.00
55301;BME280;58302;51.446;-2.000;2023-02-10T03:43:05;102799.16;;;-5.60;100.00
55301;BME280;58302;51.446;-2.000;2023-02-10T03:45:31;102804.53;;;-5.62;100.00
55301;BME280;58302;51.446;-2.000;2023-02-10T03:47:57;102803.06;;;-5.66;100.00
55301;BME280;58302;51.446;-2.000;2023-02-10T03:50:25;102803.34;;;-5.70;100.00
55301;BME280;58302;51.446;-2.000;2023-02-10T03:52:51;102798.50;;;-5.64;100.00
55301;BME280;58302;51.446;-2.000;2023-02-10T03:55:17;102786.00;;;-5.62;100.00
55301;BME280;58302;51.446;-2.000;2023-02-10T03:57:45;102786.09;;;-5.63;100.00
55301;BME280;58302;51.446;-2.000;2023-02-10T04:00:12;102793.75;;;-5.59;100.00
55301;BME280;58302;51.446;-2.000;2023-02-10T04:02:38;102790.38;;;-5.48;100.00
55301;BME280;58302;51.446;-2.000;2023-02-10T04:05:04;102788.16;;;-5.41;100.00
55301;BME280;58302;51.446;-2.000;2023-02-10T04:07:30;102788.81;;;-5.38;100.00
55301;BME280;58302;51.446;-2.000;2023-02-10T04:09:56;102795.69;;;-5.35;100.00
55301;BME280;58302;51.446;-2.000;2023-02-10T04:12:22;102795.91;;;-5.38;100.00
55301;BME280;58302;51.446;-2.000;2023-02-10T04:14:48;102791.13;;;-5.46;100.00
55301;BME280;58302;51.446;-2.000;2023-02-10T04:17:14;102800.31;;;-5.51;100.00
55301;BME280;58302;51.446;-2.000;2023-02-10T04:19:40;102806.03;;;-5.58;100.00
55301;BME280;58302;51.446;-2.000;2023-02-10T04:22:06;102800.28;;;-5.64;100.00
55301;BME280;58302;51.446;-2.000;2023-02-10T04:24:32;102803.44;;;-5.72;100.00
55301;BME280;58302;51.446;-2.000;2023-02-10T04:26:58;102803.09;;;-5.80;100.00
55301;BME280;58302;51.446;-2.000;2023-02-10T04:29:24;102804.34;;;-5.86;100.00
55301;BME280;58302;51.446;-2.000;2023-02-10T04:31:50;102816.94;;;-5.89;100.00
55301;BME280;58302;51.446;-2.000;2023-02-10T04:34:16;102814.38;;;-5.91;100.00
55301;BME280;58302;51.446;-2.000;2023-02-10T04:36:42;102814.53;;;-5.92;100.00
55301;BME280;58302;51.446;-2.000;2023-02-10T04:39:08;102804.03;;;-5.94;100.00
55301;BME280;58302;51.446;-2.000;2023-02-10T04:41:34;102798.00;;;-5.96;100.00
55301;BME280;58302;51.446;-2.000;2023-02-10T04:44:00;102780.72;;;-5.89;100.00
55301;BME280;58302;51.446;-2.000;2023-02-10T04:46:26;102773.38;;;-5.71;100.00
55301;BME280;58302;51.446;-2.000;2023-02-10T04:48:52;102778.88;;;-5.61;100.00
55301;BME280;58302;51.446;-2.000;2023-02-10T04:51:18;102771.16;;;-5.64;100.00
55301;BME280;58302;51.446;-2.000;2023-02-10T04:53:44;102783.00;;;-5.70;100.00
55301;BME280;58302;51.446;-2.000;2023-02-10T04:56:10;102788.59;;;-5.74;100.00
55301;BME280;58302;51.446;-2.000;2023-02-10T04:58:36;102788.34;;;-5.84;100.00
55301;BME280;58302;51.446;-2.000;2023-02-10T05:01:02;102789.59;;;-5.90;100.00
55301;BME280;58302;51.446;-2.000;2023-02-10T05:03:28;102786.84;;;-5.88;100.00
55301;BME280;58302;51.446;-2.000;2023-02-10T05:05:54;102790.06;;;-5.83;100.00
55301;BME280;58302;51.446;-2.000;2023-02-10T05:08:20;102784.88;;;-5.85;100.00
55301;BME280;58302;51.446;-2.000;2023-02-10T05:10:51;102776.25;;;-5.88;100.00
55301;BME280;58302;51.446;-2.000;2023-02-10T05:13:19;102781.25;;;-5.96;100.00
55301;BME280;58302;51.446;-2.000;2023-02-10T05:15:46;102785.25;;;-6.03;100.00
55301;BME280;58302;51.446;-2.000;2023-02-10T05:18:12;102781.00;;;-6.06;100.00
55301;BME280;58302;51.446;-2.000;2023-02-10T05:20:38;102776.25;;;-6.01;100.00
55301;BME280;58302;51.446;-2.000;2023-02-10T05:23:04;102777.00;;;-5.99;100.00
55301;BME280;58302;51.446;-2.000;2023-02-10T05:25:30;102779.56;;;-5.97;100.00
55301;BME280;58302;51.446;-2.000;2023-02-10T05:27:56;102771.91;;;-6.02;100.00
55301;BME280;58302;51.446;-2.000;2023-02-10T05:30:22;102776.91;;;-5.97;100.00
55301;BME280;58302;51.446;-2.000;2023-02-10T05:32:49;102776.16;;;-5.99;100.00
55301;BME280;58302;51.446;-2.000;2023-02-10T05:35:15;102789.78;;;-6.05;100.00
55301;BME280;58302;51.446;-2.000;2023-02-10T05:37:40;102788.31;;;-6.09;100.00
55301;BME280;58302;51.446;-2.000;2023-02-10T05:40:07;102791.69;;;-6.07;100.00
55301;BME280;58302;51.446;-2.000;2023-02-10T05:42:33;102795.84;;;-6.03;100.00
55301;BME280;58302;51.446;-2.000;2023-02-10T05:44:59;102792.81;;;-5.97;100.00
55301;BME280;58302;51.446;-2.000;2023-02-10T05:47:25;102794.06;;;-5.90;100.00
55301;BME280;58302;51.446;-2.000;2023-02-10T05:49:51;102788.16;;;-5.81;100.00
55301;BME280;58302;51.446;-2.000;2023-02-10T05:52:17;102796.19;;;-5.83;100.00
55301;BME280;58302;51.446;-2.000;2023-02-10T05:54:43;102791.97;;;-5.85;100.00
55301;BME280;58302;51.446;-2.000;2023-02-10T05:57:09;102792.41;;;-5.91;100.00
55301;BME280;58302;51.446;-2.000;2023-02-10T05:59:35;102805.94;;;-5.96;100.00
55301;BME280;58302;51.446;-2.000;2023-02-10T06:02:01;102803.28;;;-5.96;100.00
55301;BME280;58302;51.446;-2.000;2023-02-10T06:04:27;102798.94;;;-5.97;100.00
55301;BME280;58302;51.446;-2.000;2023-02-10T06:06:53;102795.16;;;-5.93;100.00
55301;BME280;58302;51.446;-2.000;2023-02-10T06:09:19;102794.91;;;-5.90;100.00
55301;BME280;58302;51.446;-2.000;2023-02-10T06:11:50;102804.47;;;-5.87;100.00
55301;BME280;58302;51.446;-2.000;2023-02-10T06:14:17;102790.28;;;-5.86;100.00
55301;BME280;58302;51.446;-2.000;2023-02-10T06:16:43;102793.66;;;-5.84;100.00
55301;BME280;58302;51.446;-2.000;2023-02-10T06:19:10;102796.31;;;-5.84;100.00
55301;BME280;58302;51.446;-2.000;2023-02-10T06:21:36;102793.53;;;-5.83;100.00
55301;BME280;58302;51.446;-2.000;2023-02-10T06:24:02;102784.56;;;-5.80;100.00
55301;BME280;58302;51.446;-2.000;2023-02-10T06:26:28;102795.81;;;-5.76;100.00
55301;BME280;58302;51.446;-2.000;2023-02-10T06:28:54;102776.75;;;-5.69;100.00
55301;BME280;58302;51.446;-2.000;2023-02-10T06:31:22;102791.09;;;-5.59;100.00
55301;BME280;58302;51.446;-2.000;2023-02-10T06:33:48;102789.53;;;-5.48;100.00
55301;BME280;58302;51.446;-2.000;2023-02-10T06:36:14;102787.44;;;-5.43;100.00
55301;BME280;58302;51.446;-2.000;2023-02-10T06:38:40;102798.03;;;-5.43;100.00
55301;BME280;58302;51.446;-2.000;2023-02-10T06:41:06;102785.69;;;-5.44;100.00
55301;BME280;58302;51.446;-2.000;2023-02-10T06:43:32;102785.63;;;-5.43;100.00
55301;BME280;58302;51.446;-2.000;2023-02-10T06:45:58;102792.97;;;-5.21;100.00
55301;BME280;58302;51.446;-2.000;2023-02-10T06:48:24;102789.47;;;-4.96;100.00
55301;BME280;58302;51.446;-2.000;2023-02-10T06:50:52;102795.50;;;-4.81;100.00
55301;BME280;58302;51.446;-2.000;2023-02-10T06:53:19;102797.00;;;-4.77;100.00
55301;BME280;58302;51.446;-2.000;2023-02-10T06:55:45;102790.63;;;-4.74;100.00
55301;BME280;58302;51.446;-2.000;2023-02-10T06:58:11;102804.59;;;-4.72;100.00
55301;BME280;58302;51.446;-2.000;2023-02-10T07:00:37;102812.06;;;-4.65;100.00
55301;BME280;58302;51.446;-2.000;2023-02-10T07:03:03;102805.47;;;-4.59;100.00
55301;BME280;58302;51.446;-2.000;2023-02-10T07:05:29;102802.25;;;-4.52;100.00
55301;BME280;58302;51.446;-2.000;2023-02-10T07:07:57;102808.94;;;-4.46;100.00
55301;BME280;58302;51.446;-2.000;2023-02-10T07:10:25;102810.75;;;-4.34;100.00
55301;BME280;58302;51.446;-2.000;2023-02-10T07:12:51;102810.28;;;-4.28;100.00
55301;BME280;58302;51.446;-2.000;2023-02-10T07:15:17;102798.47;;;-4.24;100.00
55301;BME280;58302;51.446;-2.000;2023-02-10T07:17:45;102797.50;;;-4.10;100.00
55301;BME280;58302;51.446;-2.000;2023-02-10T07:20:11;102797.34;;;-3.95;100.00
55301;BME280;58302;51.446;-2.000;2023-02-10T07:22:37;102798.31;;;-3.73;100.00
55301;BME280;58302;51.446;-2.000;2023-02-10T07:25:03;102791.94;;;-3.59;100.00
55301;BME280;58302;51.446;-2.000;2023-02-10T07:27:30;102793.06;;;-3.50;100.00
55301;BME280;58302;51.446;-2.000;2023-02-10T07:29:56;102798.78;;;-3.43;100.00
55301;BME280;58302;51.446;-2.000;2023-02-10T07:32:22;102804.34;;;-3.35;100.00
55301;BME280;58302;51.446;-2.000;2023-02-10T07:34:47;102813.44;;;-3.27;100.00
55301;BME280;58302;51.446;-2.000;2023-02-10T07:37:15;102815.66;;;-3.09;100.00
55301;BME280;58302;51.446;-2.000;2023-02-10T07:39:41;102811.81;;;-2.94;100.00
55301;BME280;58302;51.446;-2.000;2023-02-10T07:42:07;102807.22;;;-2.81;100.00
55301;BME280;58302;51.446;-2.000;2023-02-10T07:44:33;102811.00;;;-2.61;100.00
55301;BME280;58302;51.446;-2.000;2023-02-10T07:46:59;102808.81;;;-2.33;100.00
55301;BME280;58302;51.446;-2.000;2023-02-10T07:49:25;102801.97;;;-2.04;100.00
55301;BME280;58302;51.446;-2.000;2023-02-10T07:51:52;102807.22;;;-1.70;100.00
55301;BME280;58302;51.446;-2.000;2023-02-10T07:54:18;102808.38;;;-1.52;100.00
55301;BME280;58302;51.446;-2.000;2023-02-10T07:56:44;102817.28;;;-1.42;100.00
55301;BME280;58302;51.446;-2.000;2023-02-10T07:59:10;102822.81;;;-1.34;100.00
55301;BME280;58302;51.446;-2.000;2023-02-10T08:01:36;102830.91;;;-1.24;100.00
55301;BME280;58302;51.446;-2.000;2023-02-10T08:04:10;102833.19;;;-1.19;100.00
55301;BME280;58302;51.446;-2.000;2023-02-10T08:06:36;102841.38;;;-1.11;100.00
55301;BME280;58302;51.446;-2.000;2023-02-10T08:09:03;102843.88;;;-0.98;100.00
55301;BME280;58302;51.446;-2.000;2023-02-10T08:11:29;102850.16;;;-0.78;100.00
55301;BME280;58302;51.446;-2.000;2023-02-10T08:13:55;102846.00;;;-0.71;100.00
55301;BME280;58302;51.446;-2.000;2023-02-10T08:16:21;102851.38;;;-0.62;100.00
55301;BME280;58302;51.446;-2.000;2023-02-10T08:18:47;102856.06;;;-0.54;100.00
55301;BME280;58302;51.446;-2.000;2023-02-10T08:21:13;102853.84;;;-0.49;100.00
55301;BME280;58302;51.446;-2.000;2023-02-10T08:23:39;102844.84;;;-0.48;100.00
55301;BME280;58302;51.446;-2.000;2023-02-10T08:26:08;102853.56;;;-0.46;100.00
55301;BME280;58302;51.446;-2.000;2023-02-10T08:28:36;102848.38;;;-0.47;100.00
55301;BME280;58302;51.446;-2.000;2023-02-10T08:31:04;102857.66;;;-0.42;100.00
55301;BME280;58302;51.446;-2.000;2023-02-10T08:33:34;102849.28;;;-0.28;100.00
55301;BME280;58302;51.446;-2.000;2023-02-10T08:36:11;102847.47;;;-0.17;100.00
55301;BME280;58302;51.446;-2.000;2023-02-10T08:38:38;102843.06;;;0.03;100.00
55301;BME280;58302;51.446;-2.000;2023-02-10T08:41:04;102850.00;;;0.24;100.00
55301;BME280;58302;51.446;-2.000;2023-02-10T08:43:30;102858.59;;;0.47;100.00
55301;BME280;58302;51.446;-2.000;2023-02-10T08:45:58;102856.78;;;0.67;100.00
55301;BME280;58302;51.446;-2.000;2023-02-10T08:48:24;102855.38;;;0.83;100.00
55301;BME280;58302;51.446;-2.000;2023-02-10T08:50:51;102864.22;;;1.02;100.00
55301;BME280;58302;51.446;-2.000;2023-02-10T08:53:16;102874.50;;;1.26;100.00
55301;BME280;58302;51.446;-2.000;2023-02-10T08:55:43;102882.19;;;1.49;100.00
55301;BME280;58302;51.446;-2.000;2023-02-10T08:58:09;102881.63;;;1.55;100.00
55301;BME280;58302;51.446;-2.000;2023-02-10T09:00:35;102872.56;;;1.66;100.00
55301;BME280;58302;51.446;-2.000;2023-02-10T09:03:01;102864.75;;;1.72;100.00
55301;BME280;58302;51.446;-2.000;2023-02-10T09:05:27;102869.97;;;1.74;100.00
55301;BME280;58302;51.446;-2.000;2023-02-10T09:07:53;102876.94;;;1.57;100.00
55301;BME280;58302;51.446;-2.000;2023-02-10T09:10:19;102881.31;;;1.58;100.00
55301;BME280;58302;51.446;-2.000;2023-02-10T09:12:44;102875.97;;;1.48;100.00
55301;BME280;58302;51.446;-2.000;2023-02-10T09:15:11;102887.56;;;1.39;100.00
55301;BME280;58302;51.446;-2.000;2023-02-10T09:17:37;102891.09;;;1.40;100.00
55301;BME280;58302;51.446;-2.000;2023-02-10T09:20:03;102886.72;;;1.39;100.00
55301;BME280;58302;51.446;-2.000;2023-02-10T09:22:29;102909.84;;;1.49;100.00
55301;BME280;58302;51.446;-2.000;2023-02-10T09:24:55;102905.72;;;1.55;100.00
55301;BME280;58302;51.446;-2.000;2023-02-10T09:27:21;102899.03;;;1.69;100.00
55301;BME280;58302;51.446;-2.000;2023-02-10T09:29:47;102903.78;;;1.84;100.00
55301;BME280;58302;51.446;-2.000;2023-02-10T09:32:13;102905.72;;;1.92;100.00
55301;BME280;58302;51.446;-2.000;2023-02-10T09:34:40;102905.41;;;2.05;100.00
55301;BME280;58302;51.446;-2.000;2023-02-10T09:37:06;102909.56;;;2.17;100.00
55301;BME280;58302;51.446;-2.000;2023-02-10T09:39:33;102906.22;;;2.33;100.00
55301;BME280;58302;51.446;-2.000;2023-02-10T09:42:23;102904.84;;;2.47;100.00
55301;BME280;58302;51.446;-2.000;2023-02-10T09:44:59;102899.22;;;2.85;100.00
55301;BME280;58302;51.446;-2.000;2023-02-10T09:47:35;102885.22;;;3.17;100.00
55301;BME280;58302;51.446;-2.000;2023-02-10T09:50:36;102886.53;;;3.39;100.00
55301;BME280;58302;51.446;-2.000;2023-02-10T09:53:17;102882.16;;;3.64;100.00
55301;BME280;58302;51.446;-2.000;2023-02-10T09:55:56;102886.06;;;3.70;100.00
55301;BME280;58302;51.446;-2.000;2023-02-10T09:58:36;102882.72;;;3.76;100.00
55301;BME280;58302;51.446;-2.000;2023-02-10T10:01:24;102875.31;;;3.70;100.00
55301;BME280;58302;51.446;-2.000;2023-02-10T10:04:01;102876.88;;;3.81;100.00
55301;BME280;58302;51.446;-2.000;2023-02-10T10:06:37;102870.56;;;3.98;100.00
55301;BME280;58302;51.446;-2.000;2023-02-10T10:14:05;102863.47;;;4.47;100.00
55301;BME280;58302;51.446;-2.000;2023-02-10T10:22:42;102854.38;;;4.48;100.00
55301;BME280;58302;51.446;-2.000;2023-02-10T10:25:21;102858.41;;;4.36;100.00
55301;BME280;58302;51.446;-2.000;2023-02-10T10:30:50;102857.81;;;4.08;100.00
55301;BME280;58302;51.446;-2.000;2023-02-10T10:33:24;102852.44;;;4.08;100.00
55301;BME280;58302;51.446;-2.000;2023-02-10T10:35:51;102854.28;;;4.08;100.00
55301;BME280;58302;51.446;-2.000;2023-02-10T10:38:23;102853.94;;;4.11;100.00
55301;BME280;58302;51.446;-2.000;2023-02-10T10:40:53;102856.16;;;4.15;100.00
55301;BME280;58302;51.446;-2.000;2023-02-10T10:43:24;102845.88;;;4.11;100.00
55301;BME280;58302;51.446;-2.000;2023-02-10T10:45:59;102837.78;;;4.03;100.00
55301;BME280;58302;51.446;-2.000;2023-02-10T10:48:30;102838.16;;;4.08;100.00
55301;BME280;58302;51.446;-2.000;2023-02-10T10:51:03;102833.72;;;3.90;100.00
55301;BME280;58302;51.446;-2.000;2023-02-10T10:53:50;102840.44;;;3.94;100.00
55301;BME280;58302;51.446;-2.000;2023-02-10T11:01:40;102836.41;;;5.06;100.00
55301;BME280;58302;51.446;-2.000;2023-02-10T11:06:39;102832.78;;;5.38;100.00
55301;BME280;58302;51.446;-2.000;2023-02-10T11:09:34;102841.25;;;5.27;100.00
55301;BME280;58302;51.446;-2.000;2023-02-10T11:12:21;102838.56;;;5.11;100.00
55301;BME280;58302;51.446;-2.000;2023-02-10T11:14:51;102835.22;;;4.92;100.00
55301;BME280;58302;51.446;-2.000;2023-02-10T11:22:32;102843.31;;;4.92;100.00
55301;BME280;58302;51.446;-2.000;2023-02-10T11:25:00;102844.16;;;5.17;100.00
55301;BME280;58302;51.446;-2.000;2023-02-10T11:27:26;102834.59;;;5.62;100.00
55301;BME280;58302;51.446;-2.000;2023-02-10T11:29:55;102829.13;;;5.78;100.00
55301;BME280;58302;51.446;-2.000;2023-02-10T11:32:23;102811.78;;;6.43;100.00
55301;BME280;58302;51.446;-2.000;2023-02-10T11:34:51;102811.63;;;7.35;100.00
55301;BME280;58302;51.446;-2.000;2023-02-10T11:37:25;102797.38;;;8.28;100.00
55301;BME280;58302;51.446;-2.000;2023-02-10T11:39:52;102792.50;;;8.81;100.00
55301;BME280;58302;51.446;-2.000;2023-02-10T11:42:25;102795.19;;;8.53;100.00
55301;BME280;58302;51.446;-2.000;2023-02-10T11:44:57;102792.72;;;8.22;100.00
55301;BME280;58302;51.446;-2.000;2023-02-10T11:47:26;102793.47;;;7.80;100.00
55301;BME280;58302;51.446;-2.000;2023-02-10T11:49:52;102789.97;;;7.64;100.00
55301;BME280;58302;51.446;-2.000;2023-02-10T11:52:20;102787.63;;;7.61;100.00
55301;BME280;58302;51.446;-2.000;2023-02-10T11:54:48;102793.47;;;7.80;100.00
55301;BME280;58302;51.446;-2.000;2023-02-10T11:57:33;102785.56;;;7.63;100.00
55301;BME280;58302;51.446;-2.000;2023-02-10T12:16:12;102779.22;;;7.86;100.00
55301;BME280;58302;51.446;-2.000;2023-02-10T12:18:53;102778.50;;;8.56;100.00
55301;BME280;58302;51.446;-2.000;2023-02-10T12:26:47;102770.00;;;9.50;100.00
55301;BME280;58302;51.446;-2.000;2023-02-10T12:39:56;102748.81;;;10.61;100.00
55301;BME280;58302;51.446;-2.000;2023-02-10T12:45:28;102753.63;;;10.79;100.00
55301;BME280;58302;51.446;-2.000;2023-02-10T12:51:00;102739.38;;;10.24;100.00
55301;BME280;58302;51.446;-2.000;2023-02-10T12:53:35;102738.09;;;10.26;100.00
55301;BME280;58302;51.446;-2.000;2023-02-10T12:56:14;102734.59;;;10.46;100.00
55301;BME280;58302;51.446;-2.000;2023-02-10T12:58:51;102735.00;;;10.89;100.00
55301;BME280;58302;51.446;-2.000;2023-02-10T13:01:23;102735.38;;;10.93;100.00
55301;BME280;58302;51.446;-2.000;2023-02-10T13:03:53;102730.91;;;11.31;100.00
55301;BME280;58302;51.446;-2.000;2023-02-10T13:06:46;102722.75;;;11.90;100.00
55301;BME280;58302;51.446;-2.000;2023-02-10T13:09:42;102718.84;;;12.85;100.00
55301;BME280;58302;51.446;-2.000;2023-02-10T13:12:21;102728.44;;;13.13;100.00
55301;BME280;58302;51.446;-2.000;2023-02-10T13:14:50;102720.38;;;12.81;100.00
55301;BME280;58302;51.446;-2.000;2023-02-10T13:17:18;102717.50;;;12.76;100.00
55301;BME280;58302;51.446;-2.000;2023-02-10T13:25:09;102716.50;;;11.69;100.00
55301;BME280;58302;51.446;-2.000;2023-02-10T13:27:49;102711.03;;;11.38;100.00
55301;BME280;58302;51.446;-2.000;2023-02-10T13:35:44;102716.09;;;10.01;100.00
55301;BME280;58302;51.446;-2.000;2023-02-10T13:38:16;102710.47;;;10.03;100.00
55301;BME280;58302;51.446;-2.000;2023-02-10T13:40:51;102712.56;;;10.14;100.00
55301;BME280;58302;51.446;-2.000;2023-02-10T13:43:25;102717.56;;;10.04;100.00
55301;BME280;58302;51.446;-2.000;2023-02-10T13:45:52;102706.28;;;10.07;100.00
55301;BME280;58302;51.446;-2.000;2023-02-10T13:48:23;102694.59;;;10.13;100.00
55301;BME280;58302;51.446;-2.000;2023-02-10T13:50:57;102696.69;;;10.18;100.00
55301;BME280;58302;51.446;-2.000;2023-02-10T13:53:36;102704.22;;;10.22;100.00
55301;BME280;58302;51.446;-2.000;2023-02-10T14:01:47;102696.44;;;9.93;100.00
55301;BME280;58302;51.446;-2.000;2023-02-10T14:06:51;102696.63;;;9.85;100.00
55301;BME280;58302;51.446;-2.000;2023-02-10T14:09:41;102693.25;;;9.83;100.00
55301;BME280;58302;51.446;-2.000;2023-02-10T14:12:26;102702.44;;;9.68;100.00
55301;BME280;58302;51.446;-2.000;2023-02-10T14:14:52;102690.53;;;9.76;100.00
55301;BME280;58302;51.446;-2.000;2023-02-10T14:17:26;102680.94;;;9.73;100.00
55301;BME280;58302;51.446;-2.000;2023-02-10T14:19:58;102682.38;;;9.63;100.00
55301;BME280;58302;51.446;-2.000;2023-02-10T14:22:33;102676.94;;;9.69;100.00
55301;BME280;58302;51.446;-2.000;2023-02-10T14:25:27;102672.13;;;9.71;100.00